PWSweather.com
Personal Weather Stations
Station Observations
SHAHALMS1
Eftra, Falkenberg, HA

EftraFalkenberg, HA

Lat: 56.85, Lon: 12.65

Elevation: 140

Station Type:

http://hem.passagen.se/risarp101

High Low Average
Temperature 83.1°F28.4°C 50.7°F10.4°C 70.2°F21.2°C
Dew Point 63.1°F17.3°C 45.7°F7.6°C 57.1°F13.9°C
Winds 10.9 mph 17.5 kmh Calm Calm 4.0 mph SSE6.4 kmh SSE
Wind Gusts 27.6 mph44.4 kmh -- 10.0 mph16.1 kmh
Humidity 83% 49% 65%
Pressure 29.68 in1005.1 mb 29.53 in1000.0 mb -
Precipitation 0.00 in0.0 mm - -
Hour Temp Dew Point Humidity Winds Wind Gusts Pressure Precip Precip Rate Daily Precip Total
12:00 AM 50.7°F10.4°C 45.7°F7.6°C 83% 5.6 mph E9.0 kmh E 9.7 mph15.6 kmh 29.65 in1004.1 mb 0.00 in0.0 mm 0.00 in0.0 mm 0.00 in0.0 mm
12:10 AM 50.9°F10.5°C 45.9°F7.7°C 83% 6.9 mph E11.1 kmh E 11.5 mph18.5 kmh 29.65 in1004.1 mb 0.00 in0.0 mm 0.00 in0.0 mm 0.00 in0.0 mm
12:20 AM 50.9°F10.5°C 45.9°F7.7°C 83% 6.8 mph ESE10.9 kmh ESE 12.2 mph19.6 kmh 29.65 in1004.1 mb 0.00 in0.0 mm 0.00 in0.0 mm 0.00 in0.0 mm
12:30 AM 50.9°F10.5°C 45.9°F7.7°C 83% 5.2 mph E8.4 kmh E 9.3 mph15.0 kmh 29.65 in1004.1 mb 0.00 in0.0 mm 0.00 in0.0 mm 0.00 in0.0 mm
12:40 AM 51.1°F10.6°C 46.1°F7.8°C 83% 5.3 mph E8.5 kmh E 9.3 mph15.0 kmh 29.65 in1004.1 mb 0.00 in0.0 mm 0.00 in0.0 mm 0.00 in0.0 mm
12:50 AM 51.1°F10.6°C 46.1°F7.8°C 83% 4.6 mph E7.4 kmh E 7.9 mph12.7 kmh 29.65 in1004.1 mb 0.00 in0.0 mm 0.00 in0.0 mm 0.00 in0.0 mm
01:00 AM 51.6°F10.9°C 46.6°F8.1°C 83% 4.1 mph E6.6 kmh E 7.9 mph12.7 kmh 29.65 in1004.1 mb 0.00 in0.0 mm 0.00 in0.0 mm 0.00 in0.0 mm
01:10 AM 51.8°F11.0°C 46.8°F8.2°C 83% 4.1 mph E6.6 kmh E 10.4 mph16.7 kmh 29.65 in1004.1 mb 0.00 in0.0 mm 0.00 in0.0 mm 0.00 in0.0 mm
01:20 AM 52.0°F11.1°C 46.7°F8.2°C 82% 4.3 mph E6.9 kmh E 8.9 mph14.3 kmh 29.65 in1004.1 mb 0.00 in0.0 mm 0.00 in0.0 mm 0.00 in0.0 mm
01:30 AM 52.0°F11.1°C 46.7°F8.2°C 82% 4.8 mph E7.7 kmh E 8.6 mph13.8 kmh 29.62 in1003.0 mb 0.00 in0.0 mm 0.00 in0.0 mm 0.00 in0.0 mm
01:40 AM 52.0°F11.1°C 46.7°F8.2°C 82% 4.2 mph E6.8 kmh E 10.4 mph16.7 kmh 29.62 in1003.0 mb 0.00 in0.0 mm 0.00 in0.0 mm 0.00 in0.0 mm
01:50 AM 52.0°F11.1°C 46.7°F8.2°C 82% 4.5 mph E7.2 kmh E 8.9 mph14.3 kmh 29.62 in1003.0 mb 0.00 in0.0 mm 0.00 in0.0 mm 0.00 in0.0 mm
02:00 AM 52.2°F11.2°C 46.8°F8.2°C 82% 2.4 mph E3.9 kmh E 8.6 mph13.8 kmh 29.62 in1003.0 mb 0.00 in0.0 mm 0.00 in0.0 mm 0.00 in0.0 mm
02:10 AM 52.2°F11.2°C 46.5°F8.1°C 81% 2.0 mph E3.2 kmh E 8.9 mph14.3 kmh 29.62 in1003.0 mb 0.00 in0.0 mm 0.00 in0.0 mm 0.00 in0.0 mm
02:20 AM 52.2°F11.2°C 46.5°F8.1°C 81% 2.2 mph E3.5 kmh E 6.8 mph10.9 kmh 29.62 in1003.0 mb 0.00 in0.0 mm 0.00 in0.0 mm 0.00 in0.0 mm
02:30 AM 52.2°F11.2°C 46.2°F7.9°C 80% 1.6 mph E2.6 kmh E 6.8 mph10.9 kmh 29.59 in1002.0 mb 0.00 in0.0 mm 0.00 in0.0 mm 0.00 in0.0 mm
02:40 AM 52.2°F11.2°C 46.2°F7.9°C 80% 1.7 mph E2.7 kmh E 7.5 mph12.1 kmh 29.59 in1002.0 mb 0.00 in0.0 mm 0.00 in0.0 mm 0.00 in0.0 mm
02:50 AM 52.0°F11.1°C 46.0°F7.8°C 80% 2.7 mph E4.3 kmh E 6.8 mph10.9 kmh 29.62 in1003.0 mb 0.00 in0.0 mm 0.00 in0.0 mm 0.00 in0.0 mm
03:00 AM 52.2°F11.2°C 46.2°F7.9°C 80% 2.9 mph E4.7 kmh E 7.5 mph12.1 kmh 29.59 in1002.0 mb 0.00 in0.0 mm 0.00 in0.0 mm 0.00 in0.0 mm
03:10 AM 52.3°F11.3°C 46.0°F7.8°C 79% 4.0 mph E6.4 kmh E 10.4 mph16.7 kmh 29.59 in1002.0 mb 0.00 in0.0 mm 0.00 in0.0 mm 0.00 in0.0 mm
03:20 AM 52.7°F11.5°C 46.4°F8.0°C 79% 4.2 mph E6.8 kmh E 11.8 mph19.0 kmh 29.59 in1002.0 mb 0.00 in0.0 mm 0.00 in0.0 mm 0.00 in0.0 mm
03:30 AM 52.9°F11.6°C 46.5°F8.1°C 79% 3.9 mph E6.3 kmh E 8.6 mph13.8 kmh 29.59 in1002.0 mb 0.00 in0.0 mm 0.00 in0.0 mm 0.00 in0.0 mm
03:40 AM 53.4°F11.9°C 46.7°F8.2°C 78% 1.3 mph E2.1 kmh E 6.4 mph10.3 kmh 29.59 in1002.0 mb 0.00 in0.0 mm 0.00 in0.0 mm 0.00 in0.0 mm
03:50 AM 54.0°F12.2°C 47.3°F8.5°C 78% 2.0 mph E3.2 kmh E 7.5 mph12.1 kmh 29.56 in1001.0 mb 0.00 in0.0 mm 0.00 in0.0 mm 0.00 in0.0 mm
04:00 AM 54.7°F12.6°C 47.6°F8.7°C 77% 1.7 mph E2.7 kmh E 8.6 mph13.8 kmh 29.56 in1001.0 mb 0.00 in0.0 mm 0.00 in0.0 mm 0.00 in0.0 mm
04:10 AM 55.4°F13.0°C 48.3°F9.1°C 77% 1.4 mph E2.3 kmh E 8.6 mph13.8 kmh 29.56 in1001.0 mb 0.00 in0.0 mm 0.00 in0.0 mm 0.00 in0.0 mm
04:20 AM 55.9°F13.3°C 48.5°F9.2°C 76% 1.1 mph E1.8 kmh E 10.0 mph16.1 kmh 29.56 in1001.0 mb 0.00 in0.0 mm 0.00 in0.0 mm 0.00 in0.0 mm
04:30 AM 56.3°F13.5°C 48.8°F9.3°C 76% 1.5 mph E2.4 kmh E 6.4 mph10.3 kmh 29.56 in1001.0 mb 0.00 in0.0 mm 0.00 in0.0 mm 0.00 in0.0 mm
04:40 AM 56.8°F13.8°C 49.0°F9.4°C 75% 4.1 mph E6.6 kmh E 11.5 mph18.5 kmh 29.56 in1001.0 mb 0.00 in0.0 mm 0.00 in0.0 mm 0.00 in0.0 mm
04:50 AM 57.2°F14.0°C 49.3°F9.6°C 75% 3.8 mph E6.1 kmh E 10.4 mph16.7 kmh 29.53 in1000.0 mb 0.00 in0.0 mm 0.00 in0.0 mm 0.00 in0.0 mm
05:00 AM 57.7°F14.3°C 49.9°F9.9°C 75% 2.0 mph ENE3.2 kmh ENE 7.5 mph12.1 kmh 29.56 in1001.0 mb 0.00 in0.0 mm 0.00 in0.0 mm 0.00 in0.0 mm
05:10 AM 58.3°F14.6°C 50.0°F10.0°C 74% 1.1 mph ENE1.8 kmh ENE 8.6 mph13.8 kmh 29.56 in1001.0 mb 0.00 in0.0 mm 0.00 in0.0 mm 0.00 in0.0 mm
05:20 AM 59.0°F15.0°C 50.7°F10.4°C 74% 2.7 mph ENE4.3 kmh ENE 10.4 mph16.7 kmh 29.56 in1001.0 mb 0.00 in0.0 mm 0.00 in0.0 mm 0.00 in0.0 mm
05:30 AM 60.3°F15.7°C 52.3°F11.3°C 75% 3.9 mph E6.3 kmh E 10.4 mph16.7 kmh 29.56 in1001.0 mb 0.00 in0.0 mm 0.00 in0.0 mm 0.00 in0.0 mm
05:40 AM 61.7°F16.5°C 53.3°F11.8°C 74% 6.4 mph E10.3 kmh E 12.9 mph20.8 kmh 29.56 in1001.0 mb 0.00 in0.0 mm 0.00 in0.0 mm 0.00 in0.0 mm
05:50 AM 63.0°F17.2°C 53.8°F12.1°C 72% 4.8 mph E7.7 kmh E 10.4 mph16.7 kmh 29.56 in1001.0 mb 0.00 in0.0 mm 0.00 in0.0 mm 0.00 in0.0 mm
06:00 AM 63.7°F17.6°C 54.1°F12.3°C 71% 4.3 mph E6.9 kmh E 9.7 mph15.6 kmh 29.56 in1001.0 mb 0.00 in0.0 mm 0.00 in0.0 mm 0.00 in0.0 mm
06:10 AM 64.4°F18.0°C 54.8°F12.7°C 71% 3.6 mph E5.8 kmh E 8.6 mph13.8 kmh 29.56 in1001.0 mb 0.00 in0.0 mm 0.00 in0.0 mm 0.00 in0.0 mm
06:20 AM 66.9°F19.4°C 56.8°F13.8°C 70% 4.4 mph E7.1 kmh E 11.5 mph18.5 kmh 29.56 in1001.0 mb 0.00 in0.0 mm 0.00 in0.0 mm 0.00 in0.0 mm
06:30 AM 70.2°F21.2°C 58.3°F14.6°C 66% 7.2 mph E11.6 kmh E 16.5 mph26.6 kmh 29.56 in1001.0 mb 0.00 in0.0 mm 0.00 in0.0 mm 0.00 in0.0 mm
06:40 AM 70.7°F21.5°C 57.0°F13.9°C 62% 8.1 mph E13.0 kmh E 17.5 mph28.2 kmh 29.56 in1001.0 mb 0.00 in0.0 mm 0.00 in0.0 mm 0.00 in0.0 mm
06:50 AM 69.6°F20.9°C 55.6°F13.1°C 61% 8.3 mph E13.4 kmh E 16.5 mph26.6 kmh 29.53 in1000.0 mb 0.00 in0.0 mm 0.00 in0.0 mm 0.00 in0.0 mm
07:00 AM 69.1°F20.6°C 55.5°F13.1°C 62% 7.8 mph E12.6 kmh E 16.5 mph26.6 kmh 29.53 in1000.0 mb 0.00 in0.0 mm 0.00 in0.0 mm 0.00 in0.0 mm
07:10 AM 69.1°F20.6°C 55.5°F13.1°C 62% 8.6 mph E13.8 kmh E 16.5 mph26.6 kmh 29.53 in1000.0 mb 0.00 in0.0 mm 0.00 in0.0 mm 0.00 in0.0 mm
07:20 AM 70.5°F21.4°C 57.3°F14.1°C 63% 8.7 mph E14.0 kmh E 17.2 mph27.7 kmh 29.53 in1000.0 mb 0.00 in0.0 mm 0.00 in0.0 mm 0.00 in0.0 mm
07:30 AM 72.7°F22.6°C 58.9°F14.9°C 62% 8.7 mph E14.0 kmh E 16.8 mph27.0 kmh 29.53 in1000.0 mb 0.00 in0.0 mm 0.00 in0.0 mm 0.00 in0.0 mm
07:40 AM 75.6°F24.2°C 60.2°F15.7°C 59% 6.0 mph SE9.7 kmh SE 13.6 mph21.9 kmh 29.53 in1000.0 mb 0.00 in0.0 mm 0.00 in0.0 mm 0.00 in0.0 mm
07:50 AM 78.1°F25.6°C 60.6°F15.9°C 55% 6.6 mph ESE10.6 kmh ESE 20.0 mph32.2 kmh 29.53 in1000.0 mb 0.00 in0.0 mm 0.00 in0.0 mm 0.00 in0.0 mm
08:00 AM 79.5°F26.4°C 60.9°F16.1°C 53% 7.2 mph SE11.6 kmh SE 20.4 mph32.8 kmh 29.56 in1001.0 mb 0.00 in0.0 mm 0.00 in0.0 mm 0.00 in0.0 mm
08:10 AM 80.2°F26.8°C 60.5°F15.8°C 51% 7.2 mph SE11.6 kmh SE 17.2 mph27.7 kmh 29.56 in1001.0 mb 0.00 in0.0 mm 0.00 in0.0 mm 0.00 in0.0 mm
08:20 AM 81.1°F27.3°C 61.3°F16.3°C 51% 8.1 mph ESE13.0 kmh ESE 22.5 mph36.2 kmh 29.56 in1001.0 mb 0.00 in0.0 mm 0.00 in0.0 mm 0.00 in0.0 mm
08:30 AM 81.0°F27.2°C 60.6°F15.9°C 50% 7.9 mph SE12.7 kmh SE 16.5 mph26.6 kmh 29.56 in1001.0 mb 0.00 in0.0 mm 0.00 in0.0 mm 0.00 in0.0 mm
08:40 AM 81.1°F27.3°C 60.7°F15.9°C 50% 7.5 mph SE12.1 kmh SE 17.2 mph27.7 kmh 29.56 in1001.0 mb 0.00 in0.0 mm 0.00 in0.0 mm 0.00 in0.0 mm
08:50 AM 81.0°F27.2°C 60.0°F15.6°C 49% 8.2 mph SE13.2 kmh SE 20.4 mph32.8 kmh 29.56 in1001.0 mb 0.00 in0.0 mm 0.00 in0.0 mm 0.00 in0.0 mm
09:00 AM 80.8°F27.1°C 60.4°F15.8°C 50% 10.9 mph SE17.5 kmh SE 27.6 mph44.4 kmh 29.53 in1000.0 mb 0.00 in0.0 mm 0.00 in0.0 mm 0.00 in0.0 mm
09:10 AM 81.1°F27.3°C 60.7°F15.9°C 50% 8.2 mph SE13.2 kmh SE 21.1 mph34.0 kmh 29.53 in1000.0 mb 0.00 in0.0 mm 0.00 in0.0 mm 0.00 in0.0 mm
09:20 AM 81.7°F27.6°C 61.8°F16.6°C 51% 7.3 mph SE11.7 kmh SE 24.7 mph39.8 kmh 29.53 in1000.0 mb 0.00 in0.0 mm 0.00 in0.0 mm 0.00 in0.0 mm
09:30 AM 81.7°F27.6°C 61.2°F16.2°C 50% 7.3 mph SE11.7 kmh SE 14.7 mph23.7 kmh 29.56 in1001.0 mb 0.00 in0.0 mm 0.00 in0.0 mm 0.00 in0.0 mm
09:40 AM 81.5°F27.5°C 61.6°F16.4°C 51% 8.2 mph SE13.2 kmh SE 19.7 mph31.7 kmh 29.56 in1001.0 mb 0.00 in0.0 mm 0.00 in0.0 mm 0.00 in0.0 mm
09:50 AM 81.5°F27.5°C 61.1°F16.2°C 50% 7.7 mph SE12.4 kmh SE 16.8 mph27.0 kmh 29.56 in1001.0 mb 0.00 in0.0 mm 0.00 in0.0 mm 0.00 in0.0 mm
10:00 AM 81.7°F27.6°C 61.2°F16.2°C 50% 6.6 mph SE10.6 kmh SE 12.9 mph20.8 kmh 29.56 in1001.0 mb 0.00 in0.0 mm 0.00 in0.0 mm 0.00 in0.0 mm
10:10 AM 81.7°F27.6°C 61.8°F16.6°C 51% 7.0 mph S11.3 kmh S 18.3 mph29.5 kmh 29.56 in1001.0 mb 0.00 in0.0 mm 0.00 in0.0 mm 0.00 in0.0 mm
10:20 AM 82.0°F27.8°C 61.6°F16.4°C 50% 5.4 mph S8.7 kmh S 13.6 mph21.9 kmh 29.59 in1002.0 mb 0.00 in0.0 mm 0.00 in0.0 mm 0.00 in0.0 mm
10:30 AM 82.4°F28.0°C 62.5°F16.9°C 51% 4.7 mph SSE7.6 kmh SSE 17.5 mph28.2 kmh 29.59 in1002.0 mb 0.00 in0.0 mm 0.00 in0.0 mm 0.00 in0.0 mm
10:40 AM 82.6°F28.1°C 62.6°F17.0°C 51% 4.5 mph SSE7.2 kmh SSE 14.3 mph23.0 kmh 29.59 in1002.0 mb 0.00 in0.0 mm 0.00 in0.0 mm 0.00 in0.0 mm
10:50 AM 82.6°F28.1°C 62.1°F16.7°C 50% 7.0 mph S11.3 kmh S 20.8 mph33.5 kmh 29.59 in1002.0 mb 0.00 in0.0 mm 0.00 in0.0 mm 0.00 in0.0 mm
11:00 AM 83.1°F28.4°C 63.1°F17.3°C 51% 5.2 mph S8.4 kmh S 12.2 mph19.6 kmh 29.59 in1002.0 mb 0.00 in0.0 mm 0.00 in0.0 mm 0.00 in0.0 mm
11:10 AM 83.1°F28.4°C 62.0°F16.7°C 49% 7.4 mph S11.9 kmh S 20.4 mph32.8 kmh 29.59 in1002.0 mb 0.00 in0.0 mm 0.00 in0.0 mm 0.00 in0.0 mm
11:20 AM 83.1°F28.4°C 62.0°F16.7°C 49% 7.3 mph S11.7 kmh S 21.5 mph34.6 kmh 29.59 in1002.0 mb 0.00 in0.0 mm 0.00 in0.0 mm 0.00 in0.0 mm
11:30 AM 82.6°F28.1°C 61.5°F16.4°C 49% 7.2 mph S11.6 kmh S 17.2 mph27.7 kmh 29.62 in1003.0 mb 0.00 in0.0 mm 0.00 in0.0 mm 0.00 in0.0 mm
11:40 AM 82.0°F27.8°C 61.6°F16.4°C 50% 7.3 mph SSW11.7 kmh SSW 15.7 mph25.3 kmh 29.62 in1003.0 mb 0.00 in0.0 mm 0.00 in0.0 mm 0.00 in0.0 mm
11:50 AM 81.7°F27.6°C 61.8°F16.6°C 51% 6.2 mph SSW10.0 kmh SSW 14.7 mph23.7 kmh 29.62 in1003.0 mb 0.00 in0.0 mm 0.00 in0.0 mm 0.00 in0.0 mm
12:00 PM 81.1°F27.3°C 61.3°F16.3°C 51% 7.7 mph SW12.4 kmh SW 20.0 mph32.2 kmh 29.62 in1003.0 mb 0.00 in0.0 mm 0.00 in0.0 mm 0.00 in0.0 mm
12:10 PM 80.6°F27.0°C 61.3°F16.3°C 52% 6.6 mph S10.6 kmh S 15.4 mph24.8 kmh 29.62 in1003.0 mb 0.00 in0.0 mm 0.00 in0.0 mm 0.00 in0.0 mm
12:20 PM 80.6°F27.0°C 61.3°F16.3°C 52% 5.8 mph WSW9.3 kmh WSW 17.2 mph27.7 kmh 29.59 in1002.0 mb 0.00 in0.0 mm 0.00 in0.0 mm 0.00 in0.0 mm
12:30 PM 80.1°F26.7°C 61.4°F16.3°C 53% 6.1 mph WSW9.8 kmh WSW 13.6 mph21.9 kmh 29.62 in1003.0 mb 0.00 in0.0 mm 0.00 in0.0 mm 0.00 in0.0 mm
12:40 PM 80.1°F26.7°C 61.9°F16.6°C 54% 5.0 mph WSW8.0 kmh WSW 11.5 mph18.5 kmh 29.62 in1003.0 mb 0.00 in0.0 mm 0.00 in0.0 mm 0.00 in0.0 mm
12:50 PM 79.7°F26.5°C 61.6°F16.4°C 54% 5.6 mph SSW9.0 kmh SSW 14.0 mph22.5 kmh 29.62 in1003.0 mb 0.00 in0.0 mm 0.00 in0.0 mm 0.00 in0.0 mm
01:00 PM 79.7°F26.5°C 61.6°F16.4°C 54% 5.0 mph WSW8.0 kmh WSW 9.7 mph15.6 kmh 29.62 in1003.0 mb 0.00 in0.0 mm 0.00 in0.0 mm 0.00 in0.0 mm
01:10 PM 80.1°F26.7°C 62.4°F16.9°C 55% 4.0 mph SW6.4 kmh SW 10.4 mph16.7 kmh 29.62 in1003.0 mb 0.00 in0.0 mm 0.00 in0.0 mm 0.00 in0.0 mm
01:20 PM 80.1°F26.7°C 62.4°F16.9°C 55% 4.3 mph WSW6.9 kmh WSW 9.7 mph15.6 kmh 29.62 in1003.0 mb 0.00 in0.0 mm 0.00 in0.0 mm 0.00 in0.0 mm
01:30 PM 80.2°F26.8°C 62.6°F17.0°C 55% 4.0 mph SW6.4 kmh SW 8.9 mph14.3 kmh 29.62 in1003.0 mb 0.00 in0.0 mm 0.00 in0.0 mm 0.00 in0.0 mm
01:40 PM 80.4°F26.9°C 62.8°F17.1°C 55% 3.3 mph SW5.3 kmh SW 7.9 mph12.7 kmh 29.62 in1003.0 mb 0.00 in0.0 mm 0.00 in0.0 mm 0.00 in0.0 mm
01:50 PM 80.6°F27.0°C 62.4°F16.9°C 54% 3.4 mph WSW5.5 kmh WSW 8.6 mph13.8 kmh 29.62 in1003.0 mb 0.00 in0.0 mm 0.00 in0.0 mm 0.00 in0.0 mm
02:00 PM 80.2°F26.8°C 62.6°F17.0°C 55% 1.9 mph WSW3.1 kmh WSW 6.4 mph10.3 kmh 29.62 in1003.0 mb 0.00 in0.0 mm 0.00 in0.0 mm 0.00 in0.0 mm
02:10 PM 80.2°F26.8°C 62.1°F16.7°C 54% 2.7 mph W4.3 kmh W 7.2 mph11.6 kmh 29.62 in1003.0 mb 0.00 in0.0 mm 0.00 in0.0 mm 0.00 in0.0 mm
02:20 PM 80.4°F26.9°C 62.2°F16.8°C 54% 2.7 mph SW4.3 kmh SW 8.6 mph13.8 kmh 29.65 in1004.1 mb 0.00 in0.0 mm 0.00 in0.0 mm 0.00 in0.0 mm
02:30 PM 79.9°F26.6°C 61.7°F16.5°C 54% 2.2 mph WNW3.5 kmh WNW 6.1 mph9.8 kmh 29.65 in1004.1 mb 0.00 in0.0 mm 0.00 in0.0 mm 0.00 in0.0 mm
02:40 PM 79.3°F26.3°C 61.2°F16.2°C 54% 2.0 mph W3.2 kmh W 6.8 mph10.9 kmh 29.65 in1004.1 mb 0.00 in0.0 mm 0.00 in0.0 mm 0.00 in0.0 mm
02:50 PM 79.5°F26.4°C 60.9°F16.1°C 53% 1.6 mph WSW2.6 kmh WSW 5.4 mph8.7 kmh 29.62 in1003.0 mb 0.00 in0.0 mm 0.00 in0.0 mm 0.00 in0.0 mm
03:00 PM 79.2°F26.2°C 60.6°F15.9°C 53% 2.2 mph NW3.5 kmh NW 7.9 mph12.7 kmh 29.65 in1004.1 mb 0.00 in0.0 mm 0.00 in0.0 mm 0.00 in0.0 mm
03:10 PM 79.2°F26.2°C 60.6°F15.9°C 53% 1.7 mph NW2.7 kmh NW 6.1 mph9.8 kmh 29.65 in1004.1 mb 0.00 in0.0 mm 0.00 in0.0 mm 0.00 in0.0 mm
03:20 PM 78.8°F26.0°C 59.7°F15.4°C 52% 2.9 mph NW4.7 kmh NW 6.4 mph10.3 kmh 29.65 in1004.1 mb 0.00 in0.0 mm 0.00 in0.0 mm 0.00 in0.0 mm
03:30 PM 78.6°F25.9°C 59.5°F15.3°C 52% 2.2 mph NW3.5 kmh NW 6.4 mph10.3 kmh 29.65 in1004.1 mb 0.00 in0.0 mm 0.00 in0.0 mm 0.00 in0.0 mm
03:40 PM 79.0°F26.1°C 60.4°F15.8°C 53% 0.5 mph N0.8 kmh N 3.6 mph5.8 kmh 29.65 in1004.1 mb 0.00 in0.0 mm 0.00 in0.0 mm 0.00 in0.0 mm
03:50 PM 79.3°F26.3°C 60.7°F15.9°C 53% 0.6 mph NW1.0 kmh NW 5.7 mph9.2 kmh 29.62 in1003.0 mb 0.00 in0.0 mm 0.00 in0.0 mm 0.00 in0.0 mm
04:00 PM 79.7°F26.5°C 61.1°F16.2°C 53% 0.2 mph W0.3 kmh W 4.3 mph6.9 kmh 29.62 in1003.0 mb 0.00 in0.0 mm 0.00 in0.0 mm 0.00 in0.0 mm
04:10 PM 80.1°F26.7°C 61.4°F16.3°C 53% 0.5 mph WSW0.8 kmh WSW 3.2 mph5.1 kmh 29.62 in1003.0 mb 0.00 in0.0 mm 0.00 in0.0 mm 0.00 in0.0 mm
04:20 PM 79.9°F26.6°C 61.2°F16.2°C 53% 0.9 mph NW1.4 kmh NW 5.0 mph8.0 kmh 29.62 in1003.0 mb 0.00 in0.0 mm 0.00 in0.0 mm 0.00 in0.0 mm
04:30 PM 80.2°F26.8°C 61.6°F16.4°C 53% 0.9 mph W1.4 kmh W 5.0 mph8.0 kmh 29.65 in1004.1 mb 0.00 in0.0 mm 0.00 in0.0 mm 0.00 in0.0 mm
04:40 PM 79.9°F26.6°C 61.2°F16.2°C 53% 1.7 mph NW2.7 kmh NW 5.7 mph9.2 kmh 29.65 in1004.1 mb 0.00 in0.0 mm 0.00 in0.0 mm 0.00 in0.0 mm
04:50 PM 80.1°F26.7°C 61.4°F16.3°C 53% 0.6 mph NW1.0 kmh NW 4.3 mph6.9 kmh 29.62 in1003.0 mb 0.00 in0.0 mm 0.00 in0.0 mm 0.00 in0.0 mm
05:00 PM 80.1°F26.7°C 61.4°F16.3°C 53% 0.4 mph W0.6 kmh W 4.7 mph7.6 kmh 29.62 in1003.0 mb 0.00 in0.0 mm 0.00 in0.0 mm 0.00 in0.0 mm
05:10 PM 79.7°F26.5°C 61.1°F16.2°C 53% 0.3 mph WNW0.5 kmh WNW 3.2 mph5.1 kmh 29.62 in1003.0 mb 0.00 in0.0 mm 0.00 in0.0 mm 0.00 in0.0 mm
05:20 PM 79.3°F26.3°C 61.2°F16.2°C 54% 1.5 mph W2.4 kmh W 6.8 mph10.9 kmh 29.65 in1004.1 mb 0.00 in0.0 mm 0.00 in0.0 mm 0.00 in0.0 mm
05:30 PM 79.2°F26.2°C 61.1°F16.2°C 54% 0.2 mph W0.3 kmh W 2.5 mph4.0 kmh 29.65 in1004.1 mb 0.00 in0.0 mm 0.00 in0.0 mm 0.00 in0.0 mm
05:40 PM 78.6°F25.9°C 60.6°F15.9°C 54% 0.8 mph W1.3 kmh W 5.0 mph8.0 kmh 29.65 in1004.1 mb 0.00 in0.0 mm 0.00 in0.0 mm 0.00 in0.0 mm
05:50 PM 78.1°F25.6°C 60.6°F15.9°C 55% 0.5 mph WNW0.8 kmh WNW 5.0 mph8.0 kmh 29.65 in1004.1 mb 0.00 in0.0 mm 0.00 in0.0 mm 0.00 in0.0 mm
06:00 PM 77.7°F25.4°C 60.8°F16.0°C 56% 0.5 mph NW0.8 kmh NW 6.4 mph10.3 kmh 29.65 in1004.1 mb 0.00 in0.0 mm 0.00 in0.0 mm 0.00 in0.0 mm
06:10 PM 76.3°F24.6°C 59.9°F15.5°C 57% 4.5 mph NW7.2 kmh NW 7.9 mph12.7 kmh 29.65 in1004.1 mb 0.00 in0.0 mm 0.00 in0.0 mm 0.00 in0.0 mm
06:20 PM 75.6°F24.2°C 59.3°F15.2°C 57% 3.1 mph NW5.0 kmh NW 8.9 mph14.3 kmh 29.62 in1003.0 mb 0.00 in0.0 mm 0.00 in0.0 mm 0.00 in0.0 mm
06:30 PM 74.8°F23.8°C 60.0°F15.6°C 60% 3.9 mph NW6.3 kmh NW 8.6 mph13.8 kmh 29.65 in1004.1 mb 0.00 in0.0 mm 0.00 in0.0 mm 0.00 in0.0 mm
06:40 PM 74.3°F23.5°C 60.4°F15.8°C 62% 2.0 mph NW3.2 kmh NW 8.9 mph14.3 kmh 29.65 in1004.1 mb 0.00 in0.0 mm 0.00 in0.0 mm 0.00 in0.0 mm
06:50 PM 73.8°F23.2°C 60.4°F15.8°C 63% 0.3 mph NNW0.5 kmh NNW 6.1 mph9.8 kmh 29.65 in1004.1 mb 0.00 in0.0 mm 0.00 in0.0 mm 0.00 in0.0 mm
07:00 PM 73.2°F22.9°C 60.3°F15.7°C 64% 1.0 mph NW1.6 kmh NW 5.7 mph9.2 kmh 29.65 in1004.1 mb 0.00 in0.0 mm 0.00 in0.0 mm 0.00 in0.0 mm
07:10 PM 72.7°F22.6°C 60.2°F15.7°C 65% 0.2 mph NNW0.3 kmh NNW 2.1 mph3.4 kmh 29.65 in1004.1 mb 0.00 in0.0 mm 0.00 in0.0 mm 0.00 in0.0 mm
07:20 PM 72.5°F22.5°C 60.1°F15.6°C 65% Calm Calm 1.8 mph2.9 kmh 29.65 in1004.1 mb 0.00 in0.0 mm 0.00 in0.0 mm 0.00 in0.0 mm
07:30 PM 72.3°F22.4°C 60.7°F15.9°C 67% 0.1 mph NW0.2 kmh NW 2.1 mph3.4 kmh 29.65 in1004.1 mb 0.00 in0.0 mm 0.00 in0.0 mm 0.00 in0.0 mm
07:40 PM 71.8°F22.1°C 59.8°F15.4°C 66% Calm Calm 1.8 mph2.9 kmh 29.65 in1004.1 mb 0.00 in0.0 mm 0.00 in0.0 mm 0.00 in0.0 mm
07:50 PM 71.6°F22.0°C 59.6°F15.3°C 66% Calm Calm -- 29.65 in1004.1 mb 0.00 in0.0 mm 0.00 in0.0 mm 0.00 in0.0 mm
08:00 PM 71.2°F21.8°C 60.1°F15.6°C 68% Calm Calm -- 29.65 in1004.1 mb 0.00 in0.0 mm 0.00 in0.0 mm 0.00 in0.0 mm
08:10 PM 70.5°F21.4°C 59.9°F15.5°C 69% Calm Calm -- 29.65 in1004.1 mb 0.00 in0.0 mm 0.00 in0.0 mm 0.00 in0.0 mm
08:20 PM 69.6°F20.9°C 59.4°F15.2°C 70% Calm Calm -- 29.65 in1004.1 mb 0.00 in0.0 mm 0.00 in0.0 mm 0.00 in0.0 mm
08:30 PM 68.9°F20.5°C 59.1°F15.1°C 71% Calm Calm -- 29.65 in1004.1 mb 0.00 in0.0 mm 0.00 in0.0 mm 0.00 in0.0 mm
08:40 PM 67.8°F19.9°C 58.8°F14.9°C 73% Calm Calm -- 29.65 in1004.1 mb 0.00 in0.0 mm 0.00 in0.0 mm 0.00 in0.0 mm
08:50 PM 67.1°F19.5°C 58.9°F14.9°C 75% Calm Calm -- 29.68 in1005.1 mb 0.00 in0.0 mm 0.00 in0.0 mm 0.00 in0.0 mm
09:00 PM 66.7°F19.3°C 58.9°F14.9°C 76% Calm Calm -- 29.65 in1004.1 mb 0.00 in0.0 mm 0.00 in0.0 mm 0.00 in0.0 mm
09:10 PM 66.2°F19.0°C 58.8°F14.9°C 77% Calm Calm -- 29.65 in1004.1 mb 0.00 in0.0 mm 0.00 in0.0 mm 0.00 in0.0 mm
09:20 PM 66.0°F18.9°C 59.0°F15.0°C 78% Calm Calm -- 29.65 in1004.1 mb 0.00 in0.0 mm 0.00 in0.0 mm 0.00 in0.0 mm
09:30 PM 66.0°F18.9°C 59.3°F15.2°C 79% 0.2 mph E0.3 kmh E 3.6 mph5.8 kmh 29.65 in1004.1 mb 0.00 in0.0 mm 0.00 in0.0 mm 0.00 in0.0 mm
09:40 PM 66.0°F18.9°C 59.7°F15.4°C 80% Calm Calm -- 29.65 in1004.1 mb 0.00 in0.0 mm 0.00 in0.0 mm 0.00 in0.0 mm
09:50 PM 65.8°F18.8°C 59.5°F15.3°C 80% 0.1 mph E0.2 kmh E 3.6 mph5.8 kmh 29.65 in1004.1 mb 0.00 in0.0 mm 0.00 in0.0 mm 0.00 in0.0 mm
10:00 PM 65.7°F18.7°C 59.7°F15.4°C 81% 0.1 mph NE0.2 kmh NE 3.2 mph5.1 kmh 29.68 in1005.1 mb 0.00 in0.0 mm 0.00 in0.0 mm 0.00 in0.0 mm
10:10 PM 66.0°F18.9°C 60.0°F15.6°C 81% 1.3 mph ENE2.1 kmh ENE 5.0 mph8.0 kmh 29.68 in1005.1 mb 0.00 in0.0 mm 0.00 in0.0 mm 0.00 in0.0 mm
10:20 PM 66.2°F19.0°C 59.8°F15.4°C 80% 1.1 mph E1.8 kmh E 6.8 mph10.9 kmh 29.68 in1005.1 mb 0.00 in0.0 mm 0.00 in0.0 mm 0.00 in0.0 mm
10:30 PM 66.4°F19.1°C 59.7°F15.4°C 79% 0.7 mph E1.1 kmh E 6.4 mph10.3 kmh 29.65 in1004.1 mb 0.00 in0.0 mm 0.00 in0.0 mm 0.00 in0.0 mm
10:40 PM 66.6°F19.2°C 59.5°F15.3°C 78% 3.5 mph E5.6 kmh E 10.4 mph16.7 kmh 29.65 in1004.1 mb 0.00 in0.0 mm 0.00 in0.0 mm 0.00 in0.0 mm
10:50 PM 66.6°F19.2°C 59.1°F15.1°C 77% 2.4 mph E3.9 kmh E 9.3 mph15.0 kmh 29.65 in1004.1 mb 0.00 in0.0 mm 0.00 in0.0 mm 0.00 in0.0 mm
11:00 PM 66.6°F19.2°C 59.1°F15.1°C 77% 1.9 mph E3.1 kmh E 9.7 mph15.6 kmh 29.65 in1004.1 mb 0.00 in0.0 mm 0.00 in0.0 mm 0.00 in0.0 mm
11:10 PM 66.6°F19.2°C 58.8°F14.9°C 76% 3.1 mph E5.0 kmh E 9.3 mph15.0 kmh 29.65 in1004.1 mb 0.00 in0.0 mm 0.00 in0.0 mm 0.00 in0.0 mm
11:20 PM 66.6°F19.2°C 58.4°F14.7°C 75% 2.9 mph E4.7 kmh E 8.9 mph14.3 kmh 29.65 in1004.1 mb 0.00 in0.0 mm 0.00 in0.0 mm 0.00 in0.0 mm
11:30 PM 66.4°F19.1°C 58.2°F14.6°C 75% 1.9 mph E3.1 kmh E 9.3 mph15.0 kmh 29.65 in1004.1 mb 0.00 in0.0 mm 0.00 in0.0 mm 0.00 in0.0 mm
11:40 PM 66.4°F19.1°C 58.2°F14.6°C 75% 3.1 mph E5.0 kmh E 9.7 mph15.6 kmh 29.65 in1004.1 mb 0.00 in0.0 mm 0.00 in0.0 mm 0.00 in0.0 mm
11:50 PM 66.4°F19.1°C 58.2°F14.6°C 75% 3.0 mph E4.8 kmh E 7.9 mph12.7 kmh 29.65 in1004.1 mb 0.00 in0.0 mm 0.00 in0.0 mm 0.00 in0.0 mm